sensor_id;sensor_type;location;lat;lon;timestamp;pressure;altitude;pressure_sealevel;temperature;humidity
23321;BME280;33376;51.306;4.752;2023-03-13T00:01:36;99866.63;;;11.13;nan
23321;BME280;33376;51.306;4.752;2023-03-13T00:04:01;99848.41;;;11.09;nan
23321;BME280;33376;51.306;4.752;2023-03-13T00:06:28;99814.97;;;11.06;nan
23321;BME280;33376;51.306;4.752;2023-03-13T00:08:56;99803.06;;;11.12;nan
23321;BME280;33376;51.306;4.752;2023-03-13T00:11:21;99785.91;;;11.05;nan
23321;BME280;33376;51.306;4.752;2023-03-13T00:13:46;99763.16;;;11.13;nan
23321;BME280;33376;51.306;4.752;2023-03-13T00:16:13;99737.75;;;11.22;nan
23321;BME280;33376;51.306;4.752;2023-03-13T00:18:38;99722.63;;;11.11;nan
23321;BME280;33376;51.306;4.752;2023-03-13T00:21:04;99714.72;;;11.22;nan
23321;BME280;33376;51.306;4.752;2023-03-13T00:23:31;99687.59;;;11.30;nan
23321;BME280;33376;51.306;4.752;2023-03-13T00:26:00;99691.47;;;11.26;nan
23321;BME280;33376;51.306;4.752;2023-03-13T00:28:26;99684.25;;;11.28;nan
23321;BME280;33376;51.306;4.752;2023-03-13T00:30:59;99678.44;;;11.23;nan
23321;BME280;33376;51.306;4.752;2023-03-13T00:33:24;99673.50;;;11.29;nan
23321;BME280;33376;51.306;4.752;2023-03-13T00:35:49;99657.91;;;11.25;nan
23321;BME280;33376;51.306;4.752;2023-03-13T00:38:14;99645.63;;;11.24;nan
23321;BME280;33376;51.306;4.752;2023-03-13T00:40:40;99639.25;;;11.26;nan
23321;BME280;33376;51.306;4.752;2023-03-13T00:43:05;99630.69;;;11.34;nan
23321;BME280;33376;51.306;4.752;2023-03-13T00:45:30;99627.81;;;11.37;nan
23321;BME280;33376;51.306;4.752;2023-03-13T00:47:55;99614.44;;;11.49;nan
23321;BME280;33376;51.306;4.752;2023-03-13T00:50:20;99611.16;;;11.46;nan
23321;BME280;33376;51.306;4.752;2023-03-13T00:52:46;99620.09;;;11.34;nan
23321;BME280;33376;51.306;4.752;2023-03-13T00:55:11;99622.88;;;11.54;nan
23321;BME280;33376;51.306;4.752;2023-03-13T00:57:36;99620.97;;;11.56;nan
23321;BME280;33376;51.306;4.752;2023-03-13T01:00:03;99626.13;;;11.47;nan
23321;BME280;33376;51.306;4.752;2023-03-13T01:02:30;99638.44;;;11.48;nan
23321;BME280;33376;51.306;4.752;2023-03-13T01:04:55;99637.72;;;11.57;nan
23321;BME280;33376;51.306;4.752;2023-03-13T01:07:20;99627.81;;;11.59;nan
23321;BME280;33376;51.306;4.752;2023-03-13T01:09:46;99616.63;;;11.66;nan
23321;BME280;33376;51.306;4.752;2023-03-13T01:12:11;99624.56;;;11.55;nan
23321;BME280;33376;51.306;4.752;2023-03-13T01:14:36;99603.59;;;11.74;nan
23321;BME280;33376;51.306;4.752;2023-03-13T01:17:01;99596.97;;;11.69;nan
23321;BME280;33376;51.306;4.752;2023-03-13T01:19:27;99592.72;;;11.66;nan
23321;BME280;33376;51.306;4.752;2023-03-13T01:21:52;99596.25;;;11.67;nan
23321;BME280;33376;51.306;4.752;2023-03-13T01:24:18;99591.53;;;11.70;nan
23321;BME280;33376;51.306;4.752;2023-03-13T01:26:44;99596.50;;;11.64;nan
23321;BME280;33376;51.306;4.752;2023-03-13T01:29:09;99596.97;;;11.69;nan
23321;BME280;33376;51.306;4.752;2023-03-13T01:31:35;99594.94;;;11.72;nan
23321;BME280;33376;51.306;4.752;2023-03-13T01:34:01;99578.63;;;11.77;nan
23321;BME280;33376;51.306;4.752;2023-03-13T01:36:27;99568.50;;;11.82;nan
23321;BME280;33376;51.306;4.752;2023-03-13T01:38:54;99564.84;;;11.83;nan
23321;BME280;33376;51.306;4.752;2023-03-13T01:41:20;99559.91;;;11.78;nan
23321;BME280;33376;51.306;4.752;2023-03-13T01:43:45;99555.44;;;11.90;nan
23321;BME280;33376;51.306;4.752;2023-03-13T01:49:02;99502.91;;;11.94;nan
23321;BME280;33376;51.306;4.752;2023-03-13T01:51:31;99492.97;;;12.07;nan
23321;BME280;33376;51.306;4.752;2023-03-13T01:59:10;99466.31;;;11.97;nan
23321;BME280;33376;51.306;4.752;2023-03-13T02:01:37;99458.09;;;12.00;nan
23321;BME280;33376;51.306;4.752;2023-03-13T02:04:03;99443.59;;;12.04;nan
23321;BME280;33376;51.306;4.752;2023-03-13T02:06:30;99439.53;;;12.21;nan
23321;BME280;33376;51.306;4.752;2023-03-13T02:08:58;99445.34;;;12.15;nan
23321;BME280;33376;51.306;4.752;2023-03-13T02:14:10;99440.50;;;12.20;nan
23321;BME280;33376;51.306;4.752;2023-03-13T02:16:35;99438.84;;;12.19;nan
23321;BME280;33376;51.306;4.752;2023-03-13T02:19:06;99446.34;;;12.14;nan
23321;BME280;33376;51.306;4.752;2023-03-13T02:21:48;99423.09;;;12.27;nan
23321;BME280;33376;51.306;4.752;2023-03-13T02:24:48;99416.84;;;12.37;nan
23321;BME280;33376;51.306;4.752;2023-03-13T02:27:05;99422.22;;;12.47;nan
23321;BME280;33376;51.306;4.752;2023-03-13T02:29:31;99429.63;;;12.43;nan
23321;BME280;33376;51.306;4.752;2023-03-13T02:31:56;99424.69;;;12.39;nan
23321;BME280;33376;51.306;4.752;2023-03-13T02:34:23;99412.91;;;12.52;nan
23321;BME280;33376;51.306;4.752;2023-03-13T02:36:50;99408.59;;;12.61;nan
23321;BME280;33376;51.306;4.752;2023-03-13T02:39:16;99407.06;;;12.58;nan
23321;BME280;33376;51.306;4.752;2023-03-13T02:41:43;99404.28;;;12.60;nan
23321;BME280;33376;51.306;4.752;2023-03-13T02:44:08;99395.34;;;12.70;nan
23321;BME280;33376;51.306;4.752;2023-03-13T02:46:47;99406.00;;;12.70;nan
23321;BME280;33376;51.306;4.752;2023-03-13T02:49:47;99406.84;;;12.71;nan
23321;BME280;33376;51.306;4.752;2023-03-13T02:52:16;99404.06;;;12.72;nan
23321;BME280;33376;51.306;4.752;2023-03-13T02:54:44;99395.66;;;12.77;nan
23321;BME280;33376;51.306;4.752;2023-03-13T02:57:11;99395.59;;;12.88;nan
23321;BME280;33376;51.306;4.752;2023-03-13T02:59:36;99391.38;;;12.85;nan
23321;BME280;33376;51.306;4.752;2023-03-13T03:02:02;99393.72;;;12.79;nan
23321;BME280;33376;51.306;4.752;2023-03-13T03:04:27;99397.69;;;12.84;nan
23321;BME280;33376;51.306;4.752;2023-03-13T03:06:52;99397.84;;;12.92;nan
23321;BME280;33376;51.306;4.752;2023-03-13T03:09:18;99397.25;;;12.79;nan
23321;BME280;33376;51.306;4.752;2023-03-13T03:11:44;99377.94;;;12.87;nan
23321;BME280;33376;51.306;4.752;2023-03-13T03:14:09;99381.28;;;12.79;nan
23321;BME280;33376;51.306;4.752;2023-03-13T03:16:35;99359.38;;;12.96;nan
23321;BME280;33376;51.306;4.752;2023-03-13T03:19:00;99372.59;;;13.07;nan
23321;BME280;33376;51.306;4.752;2023-03-13T03:21:26;99366.03;;;13.11;nan
23321;BME280;33376;51.306;4.752;2023-03-13T03:23:51;99380.13;;;13.02;nan
23321;BME280;33376;51.306;4.752;2023-03-13T03:26:17;99364.56;;;12.98;nan
23321;BME280;33376;51.306;4.752;2023-03-13T03:28:42;99366.44;;;13.07;nan
23321;BME280;33376;51.306;4.752;2023-03-13T03:31:08;99365.59;;;13.06;nan
23321;BME280;33376;51.306;4.752;2023-03-13T03:33:34;99364.34;;;13.10;nan
23321;BME280;33376;51.306;4.752;2023-03-13T03:36:03;99357.91;;;13.03;nan
23321;BME280;33376;51.306;4.752;2023-03-13T03:38:29;99357.50;;;13.17;nan
23321;BME280;33376;51.306;4.752;2023-03-13T03:40:54;99361.00;;;13.18;nan
23321;BME280;33376;51.306;4.752;2023-03-13T03:43:19;99382.16;;;13.19;nan
23321;BME280;33376;51.306;4.752;2023-03-13T03:45:45;99370.44;;;13.32;nan
23321;BME280;33376;51.306;4.752;2023-03-13T03:48:10;99377.16;;;13.36;nan
23321;BME280;33376;51.306;4.752;2023-03-13T03:50:35;99375.59;;;13.23;nan
23321;BME280;33376;51.306;4.752;2023-03-13T03:53:00;99354.19;;;13.35;nan
23321;BME280;33376;51.306;4.752;2023-03-13T03:55:25;99352.09;;;13.38;nan
23321;BME280;33376;51.306;4.752;2023-03-13T03:57:51;99340.88;;;13.35;nan
23321;BME280;33376;51.306;4.752;2023-03-13T04:00:16;99343.97;;;13.40;nan
23321;BME280;33376;51.306;4.752;2023-03-13T04:02:43;99344.41;;;13.45;nan
23321;BME280;33376;51.306;4.752;2023-03-13T04:05:08;99340.59;;;13.47;nan
23321;BME280;33376;51.306;4.752;2023-03-13T04:07:33;99348.88;;;13.44;nan
23321;BME280;33376;51.306;4.752;2023-03-13T04:09:58;99334.16;;;13.40;nan
23321;BME280;33376;51.306;4.752;2023-03-13T04:12:24;99343.09;;;13.39;nan
23321;BME280;33376;51.306;4.752;2023-03-13T04:14:49;99355.19;;;13.43;nan
23321;BME280;33376;51.306;4.752;2023-03-13T04:17:14;99363.19;;;13.62;nan
23321;BME280;33376;51.306;4.752;2023-03-13T04:19:40;99357.44;;;13.48;nan
23321;BME280;33376;51.306;4.752;2023-03-13T04:22:05;99369.22;;;13.64;nan
23321;BME280;33376;51.306;4.752;2023-03-13T04:24:30;99356.16;;;13.52;nan
23321;BME280;33376;51.306;4.752;2023-03-13T04:26:55;99375.50;;;13.44;nan
23321;BME280;33376;51.306;4.752;2023-03-13T04:29:20;99388.38;;;13.49;nan
23321;BME280;33376;51.306;4.752;2023-03-13T04:31:46;99387.56;;;13.39;nan
23321;BME280;33376;51.306;4.752;2023-03-13T04:34:11;99378.00;;;13.36;nan
23321;BME280;33376;51.306;4.752;2023-03-13T04:36:39;99387.00;;;13.45;nan
23321;BME280;33376;51.306;4.752;2023-03-13T04:39:05;99420.78;;;13.54;nan
23321;BME280;33376;51.306;4.752;2023-03-13T04:41:33;99426.66;;;13.48;nan
23321;BME280;33376;51.306;4.752;2023-03-13T04:43:59;99420.50;;;13.57;nan
23321;BME280;33376;51.306;4.752;2023-03-13T04:46:29;99430.84;;;13.50;nan
23321;BME280;33376;51.306;4.752;2023-03-13T04:48:55;99455.22;;;13.46;nan
23321;BME280;33376;51.306;4.752;2023-03-13T04:51:23;99458.91;;;13.54;nan
23321;BME280;33376;51.306;4.752;2023-03-13T04:53:51;99460.03;;;13.61;nan
23321;BME280;33376;51.306;4.752;2023-03-13T04:56:23;99466.34;;;13.60;nan
23321;BME280;33376;51.306;4.752;2023-03-13T04:58:49;99485.28;;;13.67;nan
23321;BME280;33376;51.306;4.752;2023-03-13T05:01:17;99488.94;;;13.66;nan
23321;BME280;33376;51.306;4.752;2023-03-13T05:03:43;99514.44;;;13.68;nan
23321;BME280;33376;51.306;4.752;2023-03-13T05:06:08;99528.06;;;13.75;nan
23321;BME280;33376;51.306;4.752;2023-03-13T05:08:33;99528.16;;;13.54;nan
23321;BME280;33376;51.306;4.752;2023-03-13T05:11:00;99542.03;;;13.58;nan
23321;BME280;33376;51.306;4.752;2023-03-13T05:13:25;99548.53;;;13.74;nan
23321;BME280;33376;51.306;4.752;2023-03-13T05:15:50;99569.84;;;13.74;nan
23321;BME280;33376;51.306;4.752;2023-03-13T05:18:16;99579.78;;;13.72;nan
23321;BME280;33376;51.306;4.752;2023-03-13T05:20:41;99574.03;;;13.67;nan
23321;BME280;33376;51.306;4.752;2023-03-13T05:23:06;99588.34;;;13.76;nan
23321;BME280;33376;51.306;4.752;2023-03-13T05:25:31;99613.50;;;13.83;nan
23321;BME280;33376;51.306;4.752;2023-03-13T05:27:57;99623.44;;;13.81;nan
23321;BME280;33376;51.306;4.752;2023-03-13T05:30:22;99641.22;;;13.80;nan
23321;BME280;33376;51.306;4.752;2023-03-13T05:32:47;99651.41;;;13.66;nan
23321;BME280;33376;51.306;4.752;2023-03-13T05:35:20;99661.97;;;13.77;nan
23321;BME280;33376;51.306;4.752;2023-03-13T05:37:45;99650.03;;;13.71;nan
23321;BME280;33376;51.306;4.752;2023-03-13T05:40:11;99649.84;;;13.63;nan
23321;BME280;33376;51.306;4.752;2023-03-13T05:42:37;99669.75;;;13.59;nan
23321;BME280;33376;51.306;4.752;2023-03-13T05:45:02;99671.41;;;13.60;nan
23321;BME280;33376;51.306;4.752;2023-03-13T05:47:27;99688.19;;;13.51;nan
23321;BME280;33376;51.306;4.752;2023-03-13T05:49:53;99689.47;;;13.57;nan
23321;BME280;33376;51.306;4.752;2023-03-13T05:52:18;99686.81;;;13.57;nan
23321;BME280;33376;51.306;4.752;2023-03-13T05:54:43;99679.94;;;13.54;nan
23321;BME280;33376;51.306;4.752;2023-03-13T05:57:08;99685.97;;;13.56;nan
23321;BME280;33376;51.306;4.752;2023-03-13T05:59:34;99676.53;;;13.52;nan
23321;BME280;33376;51.306;4.752;2023-03-13T06:01:59;99674.53;;;13.65;nan
23321;BME280;33376;51.306;4.752;2023-03-13T06:04:24;99681.66;;;13.65;nan
23321;BME280;33376;51.306;4.752;2023-03-13T06:06:49;99696.94;;;13.63;nan
23321;BME280;33376;51.306;4.752;2023-03-13T06:09:15;99690.78;;;13.62;nan
23321;BME280;33376;51.306;4.752;2023-03-13T06:11:40;99705.91;;;13.62;nan
23321;BME280;33376;51.306;4.752;2023-03-13T06:14:05;99703.50;;;13.59;nan
23321;BME280;33376;51.306;4.752;2023-03-13T06:16:31;99701.56;;;13.61;nan
23321;BME280;33376;51.306;4.752;2023-03-13T06:18:56;99707.03;;;13.59;nan
23321;BME280;33376;51.306;4.752;2023-03-13T06:21:21;99703.63;;;13.57;nan
23321;BME280;33376;51.306;4.752;2023-03-13T06:23:47;99706.28;;;13.57;nan
23321;BME280;33376;51.306;4.752;2023-03-13T06:26:12;99712.81;;;13.64;nan
23321;BME280;33376;51.306;4.752;2023-03-13T06:28:37;99723.81;;;13.60;nan
23321;BME280;33376;51.306;4.752;2023-03-13T06:31:03;99723.31;;;13.66;nan
23321;BME280;33376;51.306;4.752;2023-03-13T06:33:29;99725.13;;;13.65;nan
23321;BME280;33376;51.306;4.752;2023-03-13T06:35:55;99707.91;;;13.69;nan
23321;BME280;33376;51.306;4.752;2023-03-13T06:38:20;99722.47;;;13.65;nan
23321;BME280;33376;51.306;4.752;2023-03-13T06:40:45;99736.66;;;13.66;nan
23321;BME280;33376;51.306;4.752;2023-03-13T06:43:11;99744.56;;;13.77;nan
23321;BME280;33376;51.306;4.752;2023-03-13T06:45:36;99732.47;;;13.73;nan
23321;BME280;33376;51.306;4.752;2023-03-13T06:48:01;99734.41;;;13.71;nan
23321;BME280;33376;51.306;4.752;2023-03-13T06:50:27;99750.59;;;13.79;nan
23321;BME280;33376;51.306;4.752;2023-03-13T06:52:52;99736.19;;;13.81;nan
23321;BME280;33376;51.306;4.752;2023-03-13T06:55:18;99745.72;;;13.84;nan
23321;BME280;33376;51.306;4.752;2023-03-13T06:57:43;99721.28;;;13.79;nan
23321;BME280;33376;51.306;4.752;2023-03-13T07:00:11;99742.22;;;13.83;nan
23321;BME280;33376;51.306;4.752;2023-03-13T07:02:37;99752.88;;;13.83;nan
23321;BME280;33376;51.306;4.752;2023-03-13T07:05:02;99747.56;;;13.83;nan
23321;BME280;33376;51.306;4.752;2023-03-13T07:07:30;99744.88;;;13.83;nan
23321;BME280;33376;51.306;4.752;2023-03-13T07:09:57;99754.44;;;13.86;nan
23321;BME280;33376;51.306;4.752;2023-03-13T07:12:22;99747.84;;;13.90;nan
23321;BME280;33376;51.306;4.752;2023-03-13T07:14:47;99752.88;;;14.04;nan
23321;BME280;33376;51.306;4.752;2023-03-13T07:17:12;99766.56;;;13.99;nan
23321;BME280;33376;51.306;4.752;2023-03-13T07:19:38;99758.06;;;14.05;nan
23321;BME280;33376;51.306;4.752;2023-03-13T07:22:03;99761.63;;;13.95;nan
23321;BME280;33376;51.306;4.752;2023-03-13T07:24:28;99765.28;;;13.94;nan
23321;BME280;33376;51.306;4.752;2023-03-13T07:26:53;99762.75;;;13.92;nan
23321;BME280;33376;51.306;4.752;2023-03-13T07:29:19;99773.00;;;13.97;nan
23321;BME280;33376;51.306;4.752;2023-03-13T07:31:44;99768.84;;;14.04;nan
23321;BME280;33376;51.306;4.752;2023-03-13T07:34:09;99767.94;;;13.94;nan
23321;BME280;33376;51.306;4.752;2023-03-13T07:36:34;99767.28;;;14.01;nan
23321;BME280;33376;51.306;4.752;2023-03-13T07:39:00;99774.63;;;14.09;nan
23321;BME280;33376;51.306;4.752;2023-03-13T07:41:25;99765.19;;;14.05;nan
23321;BME280;33376;51.306;4.752;2023-03-13T07:43:50;99759.28;;;14.01;nan
23321;BME280;33376;51.306;4.752;2023-03-13T07:46:16;99769.03;;;14.12;nan
23321;BME280;33376;51.306;4.752;2023-03-13T07:48:45;99764.94;;;14.28;nan
23321;BME280;33376;51.306;4.752;2023-03-13T07:51:15;99762.44;;;14.36;nan
23321;BME280;33376;51.306;4.752;2023-03-13T07:53:41;99761.84;;;14.53;nan
23321;BME280;33376;51.306;4.752;2023-03-13T07:56:09;99777.31;;;14.69;nan
23321;BME280;33376;51.306;4.752;2023-03-13T07:58:35;99778.16;;;14.69;nan
23321;BME280;33376;51.306;4.752;2023-03-13T08:01:06;99774.19;;;15.23;nan
23321;BME280;33376;51.306;4.752;2023-03-13T08:03:32;99776.44;;;15.18;nan
23321;BME280;33376;51.306;4.752;2023-03-13T08:05:58;99779.09;;;15.18;nan
23321;BME280;33376;51.306;4.752;2023-03-13T08:08:24;99766.06;;;15.34;nan
23321;BME280;33376;51.306;4.752;2023-03-13T08:10:49;99785.75;;;15.33;nan
23321;BME280;33376;51.306;4.752;2023-03-13T08:13:14;99781.25;;;15.24;nan
23321;BME280;33376;51.306;4.752;2023-03-13T08:15:39;99808.03;;;15.13;nan
23321;BME280;33376;51.306;4.752;2023-03-13T08:18:05;99807.78;;;15.16;nan
23321;BME280;33376;51.306;4.752;2023-03-13T08:20:30;99819.97;;;14.99;nan
23321;BME280;33376;51.306;4.752;2023-03-13T08:22:55;99808.03;;;15.03;nan
23321;BME280;33376;51.306;4.752;2023-03-13T08:25:21;99815.78;;;15.06;nan
23321;BME280;33376;51.306;4.752;2023-03-13T08:27:46;99819.13;;;14.99;nan
23321;BME280;33376;51.306;4.752;2023-03-13T08:30:12;99826.38;;;14.87;nan
23321;BME280;33376;51.306;4.752;2023-03-13T08:32:37;99830.63;;;14.90;nan
23321;BME280;33376;51.306;4.752;2023-03-13T08:35:02;99810.09;;;14.81;nan
23321;BME280;33376;51.306;4.752;2023-03-13T08:37:28;99826.50;;;14.86;nan
23321;BME280;33376;51.306;4.752;2023-03-13T08:39:53;99820.38;;;14.95;nan
23321;BME280;33376;51.306;4.752;2023-03-13T08:42:20;99821.44;;;14.83;nan
23321;BME280;33376;51.306;4.752;2023-03-13T08:44:45;99834.00;;;14.92;nan
23321;BME280;33376;51.306;4.752;2023-03-13T08:47:11;99831.22;;;15.03;nan
23321;BME280;33376;51.306;4.752;2023-03-13T08:49:36;99823.06;;;15.04;nan
23321;BME280;33376;51.306;4.752;2023-03-13T08:52:02;99810.44;;;15.06;nan
23321;BME280;33376;51.306;4.752;2023-03-13T08:54:28;99799.38;;;15.30;nan
23321;BME280;33376;51.306;4.752;2023-03-13T08:56:53;99802.09;;;15.68;nan
23321;BME280;33376;51.306;4.752;2023-03-13T08:59:18;99789.94;;;16.21;nan
23321;BME280;33376;51.306;4.752;2023-03-13T09:01:43;99788.00;;;16.41;nan
23321;BME280;33376;51.306;4.752;2023-03-13T09:04:09;99795.22;;;16.50;nan
23321;BME280;33376;51.306;4.752;2023-03-13T09:06:35;99828.44;;;16.38;nan
23321;BME280;33376;51.306;4.752;2023-03-13T09:09:01;99833.25;;;16.25;nan
23321;BME280;33376;51.306;4.752;2023-03-13T09:11:26;99827.03;;;16.43;nan
23321;BME280;33376;51.306;4.752;2023-03-13T09:13:51;99843.16;;;16.15;nan
23321;BME280;33376;51.306;4.752;2023-03-13T09:16:21;99843.81;;;16.26;nan
23321;BME280;33376;51.306;4.752;2023-03-13T09:18:46;99873.66;;;16.31;nan
23321;BME280;33376;51.306;4.752;2023-03-13T09:21:13;99872.69;;;16.32;nan
23321;BME280;33376;51.306;4.752;2023-03-13T09:23:39;99878.00;;;16.61;nan
23321;BME280;33376;51.306;4.752;2023-03-13T09:26:05;99882.06;;;16.55;nan
23321;BME280;33376;51.306;4.752;2023-03-13T09:28:30;99885.91;;;16.53;nan
23321;BME280;33376;51.306;4.752;2023-03-13T09:30:55;99883.91;;;16.36;nan
23321;BME280;33376;51.306;4.752;2023-03-13T09:33:29;99895.19;;;16.30;nan
23321;BME280;33376;51.306;4.752;2023-03-13T09:35:55;99892.50;;;16.58;nan
23321;BME280;33376;51.306;4.752;2023-03-13T09:38:20;99865.28;;;16.63;nan
23321;BME280;33376;51.306;4.752;2023-03-13T09:40:46;99897.94;;;16.76;nan
23321;BME280;33376;51.306;4.752;2023-03-13T09:45:59;99903.31;;;16.66;nan
23321;BME280;33376;51.306;4.752;2023-03-13T09:51:36;99907.75;;;16.94;nan
23321;BME280;33376;51.306;4.752;2023-03-13T09:56:04;99912.16;;;16.76;nan
23321;BME280;33376;51.306;4.752;2023-03-13T09:58:32;99905.97;;;16.76;nan
23321;BME280;33376;51.306;4.752;2023-03-13T10:01:04;99906.56;;;16.70;nan
23321;BME280;33376;51.306;4.752;2023-03-13T10:03:30;99915.72;;;16.67;nan
23321;BME280;33376;51.306;4.752;2023-03-13T10:06:00;99917.97;;;16.72;nan
23321;BME280;33376;51.306;4.752;2023-03-13T10:08:30;99924.13;;;16.82;nan
23321;BME280;33376;51.306;4.752;2023-03-13T10:13:22;99920.44;;;16.92;nan
23321;BME280;33376;51.306;4.752;2023-03-13T10:15:51;99900.81;;;17.01;nan
23321;BME280;33376;51.306;4.752;2023-03-13T10:18:20;99904.66;;;16.89;nan
23321;BME280;33376;51.306;4.752;2023-03-13T10:20:48;99920.19;;;16.76;nan
23321;BME280;33376;51.306;4.752;2023-03-13T10:25:57;99919.31;;;16.85;nan
23321;BME280;33376;51.306;4.752;2023-03-13T10:28:22;99901.31;;;16.78;nan
23321;BME280;33376;51.306;4.752;2023-03-13T10:30:55;99902.09;;;16.97;nan
23321;BME280;33376;51.306;4.752;2023-03-13T10:33:26;99893.03;;;17.08;nan
23321;BME280;33376;51.306;4.752;2023-03-13T10:35:59;99900.00;;;17.18;nan
23321;BME280;33376;51.306;4.752;2023-03-13T10:38:24;99908.94;;;17.36;nan
23321;BME280;33376;51.306;4.752;2023-03-13T10:40:59;99892.13;;;17.44;nan
23321;BME280;33376;51.306;4.752;2023-03-13T10:43:25;99862.75;;;17.25;nan
23321;BME280;33376;51.306;4.752;2023-03-13T10:45:51;99886.28;;;17.58;nan
23321;BME280;33376;51.306;4.752;2023-03-13T10:48:28;99870.47;;;17.37;nan
23321;BME280;33376;51.306;4.752;2023-03-13T10:50:55;99867.69;;;17.29;nan
23321;BME280;33376;51.306;4.752;2023-03-13T10:53:30;99876.66;;;17.11;nan
23321;BME280;33376;51.306;4.752;2023-03-13T10:55:57;99876.53;;;17.03;nan
23321;BME280;33376;51.306;4.752;2023-03-13T10:58:34;99848.50;;;17.07;nan
23321;BME280;33376;51.306;4.752;2023-03-13T11:01:14;99818.63;;;17.02;nan
23321;BME280;33376;51.306;4.752;2023-03-13T11:03:41;99813.31;;;16.92;nan
23321;BME280;33376;51.306;4.752;2023-03-13T11:06:14;99820.66;;;16.90;nan
23321;BME280;33376;51.306;4.752;2023-03-13T11:08:44;99806.09;;;17.02;nan
23321;BME280;33376;51.306;4.752;2023-03-13T11:11:16;99805.03;;;17.13;nan
23321;BME280;33376;51.306;4.752;2023-03-13T11:13:43;99800.03;;;17.80;nan
23321;BME280;33376;51.306;4.752;2023-03-13T11:16:18;99786.16;;;18.28;nan
23321;BME280;33376;51.306;4.752;2023-03-13T11:21:12;99687.06;;;18.34;nan
23321;BME280;33376;51.306;4.752;2023-03-13T11:23:45;99670.56;;;18.21;nan
23321;BME280;33376;51.306;4.752;2023-03-13T11:29:02;99653.69;;;18.03;nan
23321;BME280;33376;51.306;4.752;2023-03-13T11:31:38;99653.94;;;18.18;nan
23321;BME280;33376;51.306;4.752;2023-03-13T11:36:34;99655.09;;;18.15;nan
23321;BME280;33376;51.306;4.752;2023-03-13T11:44:23;99644.81;;;18.36;nan
23321;BME280;33376;51.306;4.752;2023-03-13T11:46:57;99657.75;;;18.41;nan
23321;BME280;33376;51.306;4.752;2023-03-13T11:54:33;99635.63;;;18.47;nan
23321;BME280;33376;51.306;4.752;2023-03-13T12:02:32;99578.13;;;18.65;nan
23321;BME280;33376;51.306;4.752;2023-03-13T12:05:00;99577.97;;;18.75;nan
23321;BME280;33376;51.306;4.752;2023-03-13T12:07:29;99543.19;;;18.57;nan
23321;BME280;33376;51.306;4.752;2023-03-13T12:09:59;99582.38;;;18.26;nan
23321;BME280;33376;51.306;4.752;2023-03-13T12:17:38;99540.72;;;17.65;nan
23321;BME280;33376;51.306;4.752;2023-03-13T12:20:09;99563.00;;;17.65;nan
23321;BME280;33376;51.306;4.752;2023-03-13T12:22:38;99538.69;;;17.41;nan
23321;BME280;33376;51.306;4.752;2023-03-13T12:25:09;99536.25;;;17.47;nan
23321;BME280;33376;51.306;4.752;2023-03-13T12:30:44;99539.34;;;17.94;nan
23321;BME280;33376;51.306;4.752;2023-03-13T12:33:20;99484.22;;;18.00;nan
23321;BME280;33376;51.306;4.752;2023-03-13T12:35:51;99424.22;;;18.09;nan
23321;BME280;33376;51.306;4.752;2023-03-13T12:38:22;99396.06;;;18.45;nan
23321;BME280;33376;51.306;4.752;2023-03-13T12:41:11;99408.00;;;18.42;nan
23321;BME280;33376;51.306;4.752;2023-03-13T12:43:39;99397.03;;;18.92;nan
23321;BME280;33376;51.306;4.752;2023-03-13T12:48:53;99349.72;;;19.30;nan
23321;BME280;33376;51.306;4.752;2023-03-13T12:54:24;99332.44;;;19.24;nan
23321;BME280;33376;51.306;4.752;2023-03-13T12:59:29;99244.63;;;19.47;nan
23321;BME280;33376;51.306;4.752;2023-03-13T13:01:56;99239.13;;;19.63;nan
23321;BME280;33376;51.306;4.752;2023-03-13T13:04:23;99218.03;;;19.75;nan
23321;BME280;33376;51.306;4.752;2023-03-13T13:06:54;99241.09;;;19.69;nan
23321;BME280;33376;51.306;4.752;2023-03-13T13:09:36;99226.00;;;19.46;nan
23321;BME280;33376;51.306;4.752;2023-03-13T13:12:19;99182.31;;;19.44;nan
23321;BME280;33376;51.306;4.752;2023-03-13T13:19:57;99203.94;;;19.50;nan
23321;BME280;33376;51.306;4.752;2023-03-13T13:29:59;99146.78;;;20.22;nan
23321;BME280;33376;51.306;4.752;2023-03-13T13:32:33;99174.97;;;19.60;nan
23321;BME280;33376;51.306;4.752;2023-03-13T13:37:27;99217.56;;;19.49;nan
23321;BME280;33376;51.306;4.752;2023-03-13T13:39:53;99177.22;;;19.71;nan
23321;BME280;33376;51.306;4.752;2023-03-13T13:45:01;99166.75;;;19.09;nan
23321;BME280;33376;51.306;4.752;2023-03-13T13:47:28;99190.63;;;18.81;nan
23321;BME280;33376;51.306;4.752;2023-03-13T13:49:54;99234.97;;;18.69;nan
23321;BME280;33376;51.306;4.752;2023-03-13T13:52:31;99295.50;;;18.87;nan
23321;BME280;33376;51.306;4.752;2023-03-13T13:54:56;99221.69;;;19.06;nan
23321;BME280;33376;51.306;4.752;2023-03-13T13:57:22;99191.16;;;18.99;nan
23321;BME280;33376;51.306;4.752;2023-03-13T13:59:49;99200.69;;;18.79;nan
23321;BME280;33376;51.306;4.752;2023-03-13T14:02:19;99216.31;;;18.75;nan
23321;BME280;33376;51.306;4.752;2023-03-13T14:04:50;99198.22;;;18.69;nan
23321;BME280;33376;51.306;4.752;2023-03-13T14:10:05;99199.66;;;18.80;nan
23321;BME280;33376;51.306;4.752;2023-03-13T14:12:35;99212.63;;;18.68;nan
23321;BME280;33376;51.306;4.752;2023-03-13T14:15:12;99247.84;;;18.73;nan
23321;BME280;33376;51.306;4.752;2023-03-13T14:17:39;99298.66;;;18.83;nan
23321;BME280;33376;51.306;4.752;2023-03-13T14:20:14;99322.22;;;18.73;nan
23321;BME280;33376;51.306;4.752;2023-03-13T14:22:44;99361.09;;;18.93;nan
23321;BME280;33376;51.306;4.752;2023-03-13T14:25:09;99385.78;;;18.88;nan
23321;BME280;33376;51.306;4.752;2023-03-13T14:27:41;99379.91;;;18.85;nan
23321;BME280;33376;51.306;4.752;2023-03-13T14:30:06;99393.34;;;18.85;nan
23321;BME280;33376;51.306;4.752;2023-03-13T14:32:35;99390.81;;;18.91;nan
23321;BME280;33376;51.306;4.752;2023-03-13T14:35:01;99370.69;;;18.87;nan
23321;BME280;33376;51.306;4.752;2023-03-13T14:40:04;99313.19;;;18.58;nan
23321;BME280;33376;51.306;4.752;2023-03-13T14:42:29;99324.59;;;18.36;nan
23321;BME280;33376;51.306;4.752;2023-03-13T14:45:01;99308.69;;;18.18;nan
23321;BME280;33376;51.306;4.752;2023-03-13T14:47:36;99334.50;;;17.79;nan
23321;BME280;33376;51.306;4.752;2023-03-13T14:50:08;99326.28;;;18.13;nan